createdAt,value
2024-05-09T00:02:18.895Z,100.00
2024-05-09T00:05:06.646Z,100.00
2024-05-09T00:07:57.207Z,100.00
2024-05-09T00:10:44.712Z,100.00
2024-05-09T00:13:32.588Z,100.00
2024-05-09T00:16:19.924Z,100.00
2024-05-09T00:19:07.983Z,100.00
2024-05-09T00:21:56.042Z,100.00
2024-05-09T00:24:46.461Z,100.00
2024-05-09T00:27:33.725Z,100.00
2024-05-09T00:30:30.674Z,100.00
2024-05-09T00:33:22.072Z,100.00
2024-05-09T00:36:09.626Z,100.00
2024-05-09T00:38:57.541Z,100.00
2024-05-09T00:41:47.500Z,100.00
2024-05-09T00:44:35.502Z,100.00
2024-05-09T00:47:24.113Z,100.00
2024-05-09T00:50:19.222Z,100.00
2024-05-09T00:53:12.274Z,100.00
2024-05-09T00:56:01.356Z,100.00
2024-05-09T00:58:52.076Z,100.00
2024-05-09T01:01:41.996Z,100.00
2024-05-09T01:04:29.610Z,100.00
2024-05-09T01:07:17.126Z,100.00
2024-05-09T01:10:09.186Z,100.00
2024-05-09T01:12:59.389Z,100.00
2024-05-09T01:15:50.180Z,100.00
2024-05-09T01:18:38.086Z,100.00
2024-05-09T01:21:26.006Z,100.00
2024-05-09T01:24:16.103Z,100.00
2024-05-09T01:27:04.260Z,100.00
2024-05-09T01:29:51.523Z,100.00
2024-05-09T01:32:39.552Z,100.00
2024-05-09T01:35:27.883Z,100.00
2024-05-09T01:38:17.349Z,100.00
2024-05-09T01:41:08.282Z,100.00
2024-05-09T01:43:56.103Z,100.00
2024-05-09T01:46:43.915Z,100.00
2024-05-09T01:49:34.158Z,100.00
2024-05-09T01:52:22.105Z,100.00
2024-05-09T01:55:09.953Z,100.00
2024-05-09T01:57:59.814Z,100.00
2024-05-09T02:00:47.489Z,100.00
2024-05-09T02:03:35.138Z,100.00
2024-05-09T02:06:23.031Z,100.00
2024-05-09T02:09:10.582Z,100.00
2024-05-09T02:11:58.520Z,100.00
2024-05-09T02:14:48.555Z,100.00
2024-05-09T02:17:36.506Z,100.00
2024-05-09T02:20:33.062Z,100.00
2024-05-09T02:23:23.935Z,100.00
2024-05-09T02:26:11.477Z,100.00
2024-05-09T02:29:00.033Z,100.00
2024-05-09T02:31:50.180Z,100.00
2024-05-09T02:34:38.150Z,100.00
2024-05-09T02:37:25.611Z,100.00
2024-05-09T02:40:15.029Z,100.00
2024-05-09T02:43:12.195Z,100.00
2024-05-09T02:46:00.751Z,100.00
2024-05-09T02:48:51.009Z,100.00
2024-05-09T02:51:38.564Z,100.00
2024-05-09T02:54:26.577Z,100.00
2024-05-09T02:57:14.182Z,100.00
2024-05-09T03:00:01.772Z,100.00
2024-05-09T03:02:49.425Z,100.00
2024-05-09T03:05:40.581Z,100.00
2024-05-09T03:08:28.617Z,100.00
2024-05-09T03:11:23.392Z,100.00
2024-05-09T03:14:11.027Z,100.00
2024-05-09T03:16:58.973Z,100.00
2024-05-09T03:19:46.501Z,100.00
2024-05-09T03:22:37.084Z,100.00
2024-05-09T03:25:24.543Z,100.00
2024-05-09T03:28:13.666Z,100.00
2024-05-09T03:31:00.921Z,100.00
2024-05-09T03:33:49.018Z,100.00
2024-05-09T03:36:40.712Z,100.00
2024-05-09T03:39:31.199Z,100.00
2024-05-09T03:42:18.475Z,100.00
2024-05-09T03:45:06.815Z,100.00
2024-05-09T03:47:54.319Z,100.00
2024-05-09T03:50:42.602Z,100.00
2024-05-09T03:53:30.124Z,100.00
2024-05-09T03:56:20.647Z,100.00
2024-05-09T03:59:08.138Z,100.00
2024-05-09T04:01:56.236Z,100.00
2024-05-09T04:04:45.050Z,100.00
2024-05-09T04:07:34.485Z,100.00
2024-05-09T04:10:30.197Z,100.00
2024-05-09T04:13:23.661Z,100.00
2024-05-09T04:16:11.506Z,100.00
2024-05-09T04:18:59.447Z,100.00
2024-05-09T04:21:46.977Z,100.00
2024-05-09T04:24:34.837Z,100.00
2024-05-09T04:27:22.095Z,100.00
2024-05-09T04:30:19.096Z,100.00
2024-05-09T04:33:15.310Z,100.00
2024-05-09T04:36:03.548Z,100.00
2024-05-09T04:38:50.814Z,100.00
2024-05-09T04:41:39.182Z,100.00
2024-05-09T04:44:26.723Z,100.00
2024-05-09T04:47:17.138Z,100.00
2024-05-09T04:50:08.855Z,100.00
2024-05-09T04:52:58.917Z,100.00
2024-05-09T04:55:46.951Z,100.00
2024-05-09T04:58:34.406Z,100.00
2024-05-09T05:01:22.082Z,100.00
2024-05-09T05:04:12.342Z,100.00
2024-05-09T05:07:02.509Z,100.00
2024-05-09T05:09:50.398Z,100.00
2024-05-09T05:12:56.684Z,100.00
2024-05-09T05:15:45.080Z,100.00
2024-05-09T05:18:32.764Z,100.00
2024-05-09T05:21:22.992Z,100.00
2024-05-09T05:24:10.990Z,100.00
2024-05-09T05:26:58.287Z,100.00
2024-05-09T05:29:45.709Z,100.00
2024-05-09T05:32:33.398Z,100.00
2024-05-09T05:35:21.570Z,100.00
2024-05-09T05:38:11.736Z,100.00
2024-05-09T05:40:59.284Z,100.00
2024-05-09T05:43:46.802Z,100.00
2024-05-09T05:46:34.397Z,100.00
2024-05-09T05:49:21.750Z,100.00
2024-05-09T05:52:11.478Z,100.00
2024-05-09T05:55:01.714Z,100.00
2024-05-09T05:57:49.019Z,100.00
2024-05-09T06:00:39.279Z,100.00
2024-05-09T06:03:29.433Z,100.00
2024-05-09T06:06:17.439Z,100.00
2024-05-09T06:09:04.916Z,100.00
2024-05-09T06:11:55.434Z,100.00
2024-05-09T06:14:43.312Z,100.00
2024-05-09T06:17:31.611Z,100.00
2024-05-09T06:20:24.056Z,100.00
2024-05-09T06:23:19.770Z,100.00
2024-05-09T06:26:07.277Z,100.00
2024-05-09T06:28:58.044Z,100.00
2024-05-09T06:31:46.605Z,100.00
2024-05-09T06:34:34.758Z,100.00
2024-05-09T06:37:22.281Z,100.00
2024-05-09T06:40:12.557Z,100.00
2024-05-09T06:43:02.274Z,100.00
2024-05-09T06:45:55.143Z,100.00
2024-05-09T06:48:43.481Z,99.10
2024-05-09T06:51:31.030Z,98.50
2024-05-09T06:54:18.891Z,96.80
2024-05-09T06:57:06.365Z,96.00
2024-05-09T06:59:56.620Z,98.50
2024-05-09T07:02:47.782Z,98.50
2024-05-09T07:05:35.877Z,97.00
2024-05-09T07:08:23.451Z,95.50
2024-05-09T07:11:11.041Z,93.30
2024-05-09T07:13:58.777Z,91.80
2024-05-09T07:16:46.336Z,92.50
2024-05-09T07:19:36.656Z,90.60
2024-05-09T07:22:25.766Z,90.30
2024-05-09T07:25:13.095Z,91.60
2024-05-09T07:28:00.679Z,92.40
2024-05-09T07:30:48.381Z,93.40
2024-05-09T07:33:35.895Z,95.10
2024-05-09T07:36:26.392Z,95.10
2024-05-09T07:39:13.733Z,93.70
2024-05-09T07:42:01.036Z,93.80
2024-05-09T07:44:48.880Z,92.20
2024-05-09T07:48:58.133Z,89.60
2024-05-09T07:53:47.512Z,83.00
2024-05-09T07:56:38.985Z,81.20
2024-05-09T07:59:26.356Z,83.30
2024-05-09T08:02:14.401Z,80.70
2024-05-09T08:05:01.928Z,83.20
2024-05-09T08:07:50.696Z,82.10
2024-05-09T08:10:40.766Z,81.80
2024-05-09T08:13:28.696Z,78.00
2024-05-09T08:16:16.067Z,76.00
2024-05-09T08:19:03.923Z,78.30
2024-05-09T08:21:51.683Z,76.70
2024-05-09T08:24:39.209Z,78.20
2024-05-09T08:27:29.697Z,80.00
2024-05-09T08:30:24.673Z,82.60
2024-05-09T08:33:17.380Z,83.10
2024-05-09T08:36:05.032Z,75.20
2024-05-09T08:38:52.714Z,76.80
2024-05-09T08:41:42.771Z,76.20
2024-05-09T08:44:33.142Z,70.80
2024-05-09T08:47:20.635Z,69.20
2024-05-09T08:50:20.241Z,70.40
2024-05-09T08:53:16.562Z,69.10
2024-05-09T08:56:05.687Z,69.00
2024-05-09T08:58:55.957Z,64.50
2024-05-09T09:01:47.564Z,59.90
2024-05-09T09:04:39.156Z,63.70
2024-05-09T09:07:27.715Z,61.90
2024-05-09T09:10:24.908Z,61.20
2024-05-09T09:13:17.580Z,56.90
2024-05-09T09:16:06.838Z,59.70
2024-05-09T09:18:58.017Z,65.10
2024-05-09T09:21:45.643Z,62.10
2024-05-09T09:24:33.609Z,58.70
2024-05-09T09:27:22.450Z,61.10
2024-05-09T09:30:22.947Z,62.30
2024-05-09T09:33:18.517Z,62.30
2024-05-09T09:36:11.187Z,63.80
2024-05-09T09:38:59.132Z,63.00
2024-05-09T09:41:48.876Z,63.30
2024-05-09T09:44:39.605Z,61.50
2024-05-09T09:47:32.140Z,60.90
2024-05-09T09:50:27.556Z,62.00
2024-05-09T09:53:24.261Z,65.10
2024-05-09T09:56:13.269Z,63.10
2024-05-09T09:59:04.190Z,64.60
2024-05-09T10:01:51.676Z,64.80
2024-05-09T10:04:40.037Z,65.20
2024-05-09T10:07:29.673Z,63.80
2024-05-09T10:10:31.880Z,65.70
2024-05-09T10:13:21.280Z,65.90
2024-05-09T10:16:11.492Z,66.70
2024-05-09T10:18:59.351Z,66.50
2024-05-09T10:21:47.405Z,66.60
2024-05-09T10:24:48.474Z,63.60
2024-05-09T10:27:39.096Z,63.60
2024-05-09T10:30:34.059Z,64.70
2024-05-09T10:33:24.749Z,66.10
2024-05-09T10:36:12.849Z,67.00
2024-05-09T10:39:00.486Z,67.00
2024-05-09T10:41:49.043Z,68.40
2024-05-09T10:44:40.661Z,69.10
2024-05-09T10:47:29.600Z,68.70
2024-05-09T10:50:25.316Z,68.60
2024-05-09T10:53:17.296Z,68.40
2024-05-09T10:56:05.321Z,68.30
2024-05-09T10:58:53.232Z,67.40
2024-05-09T11:01:43.704Z,68.60
2024-05-09T11:04:33.222Z,64.50
2024-05-09T11:07:21.827Z,65.20
2024-05-09T11:10:12.538Z,64.60
2024-05-09T11:13:02.074Z,65.30
2024-05-09T11:15:49.920Z,66.20
2024-05-09T11:18:40.541Z,66.00
2024-05-09T11:21:28.825Z,64.90
2024-05-09T11:24:16.500Z,63.80
2024-05-09T11:27:05.668Z,63.90
2024-05-09T11:29:53.020Z,63.90
2024-05-09T11:32:42.988Z,64.70
2024-05-09T11:35:33.210Z,65.10
2024-05-09T11:38:21.318Z,64.10
2024-05-09T11:41:08.725Z,65.80
2024-05-09T11:43:58.188Z,62.30
2024-05-09T11:46:45.493Z,63.00
2024-05-09T11:49:33.749Z,64.70
2024-05-09T11:52:24.036Z,62.50
2024-05-09T11:55:12.030Z,61.90
2024-05-09T11:57:59.512Z,62.90
2024-05-09T12:00:47.655Z,61.80
2024-05-09T12:03:37.993Z,61.20
2024-05-09T12:06:25.935Z,59.90
2024-05-09T12:09:16.088Z,62.10
2024-05-09T12:12:05.124Z,60.10
2024-05-09T12:14:52.650Z,60.10
2024-05-09T12:17:40.647Z,60.00
2024-05-09T12:20:35.493Z,58.40
2024-05-09T12:23:26.326Z,59.10
2024-05-09T12:26:16.594Z,59.30
2024-05-09T12:29:04.470Z,59.90
2024-05-09T12:31:51.810Z,60.90
2024-05-09T12:34:39.639Z,61.60
2024-05-09T12:37:27.227Z,65.30
2024-05-09T12:40:22.947Z,61.60
2024-05-09T12:43:21.387Z,58.40
2024-05-09T12:46:09.082Z,61.20
2024-05-09T12:48:56.859Z,58.90
2024-05-09T12:51:44.686Z,59.30
2024-05-09T12:54:33.556Z,59.20
2024-05-09T12:57:21.950Z,59.50
2024-05-09T13:00:20.704Z,58.60
2024-05-09T13:03:15.469Z,57.10
2024-05-09T13:06:03.308Z,57.40
2024-05-09T13:08:50.910Z,54.90
2024-05-09T13:11:38.490Z,54.10
2024-05-09T13:14:26.434Z,56.70
2024-05-09T13:17:16.477Z,56.60
2024-05-09T13:20:07.105Z,55.90
2024-05-09T13:22:56.695Z,57.00
2024-05-09T13:25:44.088Z,56.80
2024-05-09T13:28:33.547Z,56.30
2024-05-09T13:31:21.074Z,56.80
2024-05-09T13:34:11.267Z,55.30
2024-05-09T13:36:59.286Z,55.50
2024-05-09T13:39:47.385Z,56.80
2024-05-09T13:42:34.986Z,55.40
2024-05-09T13:45:22.863Z,59.20
2024-05-09T13:48:10.720Z,58.10
2024-05-09T13:51:00.955Z,57.70
2024-05-09T13:53:48.489Z,56.90
2024-05-09T13:56:37.818Z,53.70
2024-05-09T13:59:25.115Z,54.60
2024-05-09T14:02:13.025Z,52.50
2024-05-09T14:05:00.736Z,53.60
2024-05-09T14:07:51.212Z,54.40
2024-05-09T14:10:44.548Z,52.80
2024-05-09T14:13:32.542Z,54.50
2024-05-09T14:16:19.924Z,55.10
2024-05-09T14:19:07.645Z,57.60
2024-05-09T14:21:55.585Z,56.80
2024-05-09T14:24:45.843Z,59.00
2024-05-09T14:27:33.355Z,58.10
2024-05-09T14:30:30.408Z,60.80
2024-05-09T14:33:27.098Z,57.50
2024-05-09T14:36:14.556Z,57.00
2024-05-09T14:39:02.043Z,58.40
2024-05-09T14:41:52.122Z,58.20
2024-05-09T14:44:39.904Z,54.00
2024-05-09T14:47:27.441Z,56.20
2024-05-09T14:50:23.690Z,54.40
2024-05-09T14:53:15.937Z,53.40
2024-05-09T14:56:03.640Z,54.30
2024-05-09T14:58:55.242Z,54.70
2024-05-09T15:01:43.022Z,54.70
2024-05-09T15:04:30.546Z,57.10
2024-05-09T15:07:18.160Z,56.40
2024-05-09T15:10:11.665Z,57.30
2024-05-09T15:13:04.560Z,57.00
2024-05-09T15:15:55.917Z,55.80
2024-05-09T15:18:44.190Z,57.50
2024-05-09T15:21:31.754Z,56.90
2024-05-09T15:27:34.294Z,56.40
2024-05-09T15:30:30.018Z,57.80
2024-05-09T15:33:22.745Z,57.90
2024-05-09T15:36:10.421Z,58.00
2024-05-09T15:38:57.766Z,58.50
2024-05-09T15:41:45.638Z,57.20
2024-05-09T15:45:04.272Z,55.70
2024-05-09T15:48:30.628Z,56.70
2024-05-09T15:51:43.118Z,53.60
2024-05-09T15:54:39.214Z,55.00
2024-05-09T15:57:41.062Z,55.30
2024-05-09T16:00:39.883Z,56.00
2024-05-09T16:03:33.896Z,55.60
2024-05-09T16:06:32.231Z,52.60
2024-05-09T16:09:50.824Z,55.40
2024-05-09T16:12:38.775Z,51.90
2024-05-09T16:15:32.315Z,54.50
2024-05-09T16:18:20.687Z,52.90
2024-05-09T16:21:12.495Z,53.10
2024-05-09T16:24:06.129Z,54.60
2024-05-09T16:27:03.408Z,53.90
2024-05-09T16:29:51.110Z,53.70
2024-05-09T16:32:41.740Z,54.00
2024-05-09T16:35:29.278Z,55.00
2024-05-09T16:38:17.162Z,53.80
2024-05-09T16:41:04.857Z,52.50
2024-05-09T16:43:55.513Z,51.40
2024-05-09T16:46:42.807Z,51.70
2024-05-09T16:49:30.979Z,51.90
2024-05-09T16:52:26.169Z,52.10
2024-05-09T16:55:16.893Z,52.30
2024-05-09T16:58:06.795Z,53.00
2024-05-09T17:00:57.438Z,53.50
2024-05-09T17:03:48.028Z,52.60
2024-05-09T17:07:09.789Z,54.90
2024-05-09T17:09:57.250Z,54.80
2024-05-09T17:12:48.419Z,53.80
2024-05-09T17:15:37.132Z,53.00
2024-05-09T17:18:28.383Z,54.30
2024-05-09T17:21:15.855Z,54.20
2024-05-09T17:24:03.942Z,54.40
2024-05-09T17:26:53.323Z,54.30
2024-05-09T17:29:40.917Z,54.50
2024-05-09T17:32:31.880Z,55.00
2024-05-09T17:35:22.132Z,55.50
2024-05-09T17:38:10.111Z,55.70
2024-05-09T17:40:58.142Z,57.20
2024-05-09T17:43:57.545Z,57.30
2024-05-09T17:46:45.958Z,58.20
2024-05-09T17:49:42.324Z,58.80
2024-05-09T17:52:38.300Z,59.60
2024-05-09T17:55:48.443Z,59.60
2024-05-09T17:58:38.993Z,59.60
2024-05-09T18:01:27.087Z,60.40
2024-05-09T18:04:14.778Z,62.50
2024-05-09T18:07:06.994Z,62.70
2024-05-09T18:09:57.250Z,62.70
2024-05-09T18:12:45.213Z,63.70
2024-05-09T18:15:32.990Z,64.10
2024-05-09T18:18:21.747Z,63.90
2024-05-09T18:21:09.782Z,63.30
2024-05-09T18:23:59.669Z,63.10
2024-05-09T18:26:50.623Z,62.40
2024-05-09T18:29:38.240Z,62.90
2024-05-09T18:32:25.806Z,63.10
2024-05-09T18:35:15.958Z,62.60
2024-05-09T18:38:26.928Z,63.10
2024-05-09T18:41:18.946Z,63.50
2024-05-09T18:44:10.906Z,63.80
2024-05-09T18:47:02.305Z,63.20
2024-05-09T18:49:50.765Z,63.00
2024-05-09T18:52:39.329Z,63.80
2024-05-09T18:55:26.896Z,63.50
2024-05-09T18:58:17.523Z,63.60
2024-05-09T19:01:10.666Z,64.40
2024-05-09T19:04:04.976Z,64.50
2024-05-09T19:06:53.363Z,64.90
2024-05-09T19:09:43.322Z,65.50
2024-05-09T19:12:39.358Z,65.50
2024-05-09T19:15:27.013Z,66.40
2024-05-09T19:18:17.392Z,66.20
2024-05-09T19:21:06.060Z,67.30
2024-05-09T19:23:55.624Z,68.60
2024-05-09T19:26:43.976Z,68.70
2024-05-09T19:29:34.444Z,69.40
2024-05-09T19:32:23.119Z,69.90
2024-05-09T19:35:32.393Z,70.80
2024-05-09T19:38:20.575Z,71.60
2024-05-09T19:41:08.277Z,72.40
2024-05-09T19:43:56.775Z,73.40
2024-05-09T19:46:46.342Z,74.20
2024-05-09T19:49:35.001Z,75.00
2024-05-09T19:52:27.511Z,76.40
2024-05-09T19:55:16.494Z,77.00
2024-05-09T19:58:07.972Z,77.60
2024-05-09T20:00:58.407Z,78.10
2024-05-09T20:03:51.000Z,77.90
2024-05-09T20:06:51.374Z,78.00
2024-05-09T20:09:45.035Z,79.60
2024-05-09T20:12:33.371Z,80.10
2024-05-09T20:15:22.910Z,80.70
2024-05-09T20:18:28.727Z,81.10
2024-05-09T20:21:16.660Z,81.70
2024-05-09T20:24:07.323Z,81.80
2024-05-09T20:26:57.541Z,82.90
2024-05-09T20:29:46.437Z,83.10
2024-05-09T20:32:34.191Z,83.70
2024-05-09T20:35:22.397Z,84.30
2024-05-09T20:38:10.224Z,85.50
2024-05-09T20:41:03.914Z,86.00
2024-05-09T20:43:58.429Z,87.30
2024-05-09T20:46:45.701Z,88.50
2024-05-09T20:49:33.832Z,89.10
2024-05-09T20:52:21.338Z,88.90
2024-05-09T20:55:09.459Z,89.20
2024-05-09T20:57:57.458Z,89.60
2024-05-09T21:00:48.405Z,90.00
2024-05-09T21:03:38.663Z,90.10
2024-05-09T21:06:26.326Z,89.90
2024-05-09T21:09:14.371Z,89.80
2024-05-09T21:12:01.744Z,90.20
2024-05-09T21:14:50.045Z,90.30
2024-05-09T21:17:40.086Z,89.40
2024-05-09T21:20:31.860Z,89.30
2024-05-09T21:23:20.622Z,90.00
2024-05-09T21:26:08.516Z,90.20
2024-05-09T21:28:55.774Z,90.60
2024-05-09T21:31:43.711Z,90.90
2024-05-09T21:34:33.669Z,91.00
2024-05-09T21:37:21.739Z,91.60
2024-05-09T21:40:13.863Z,91.60
2024-05-09T21:43:08.615Z,92.30
2024-05-09T21:45:56.636Z,91.70
2024-05-09T21:48:44.274Z,91.70
2024-05-09T21:51:34.908Z,91.70
2024-05-09T21:54:22.781Z,92.20
2024-05-09T21:57:13.248Z,92.40
2024-05-09T22:00:01.421Z,92.50
2024-05-09T22:02:48.865Z,92.10
2024-05-09T22:05:37.811Z,92.80
2024-05-09T22:08:28.035Z,93.00
2024-05-09T22:11:15.947Z,94.00
2024-05-09T22:14:03.762Z,93.00
2024-05-09T22:16:51.435Z,93.90
2024-05-09T22:19:39.324Z,94.00
2024-05-09T22:22:27.091Z,93.60
2024-05-09T22:25:17.652Z,94.10
2024-05-09T22:28:06.054Z,93.70
2024-05-09T22:30:55.829Z,93.30
2024-05-09T22:33:46.369Z,93.30
2024-05-09T22:36:35.599Z,93.50
2024-05-09T22:39:25.350Z,94.00
2024-05-09T22:42:15.993Z,93.20
2024-05-09T22:48:10.303Z,94.20
2024-05-09T22:50:57.955Z,94.10
2024-05-09T22:53:45.798Z,93.90
2024-05-09T22:56:33.657Z,94.30
2024-05-09T22:59:34.529Z,94.70
2024-05-09T23:02:24.795Z,95.20
2024-05-09T23:05:13.145Z,95.00
2024-05-09T23:08:01.791Z,95.80
2024-05-09T23:10:53.535Z,95.50
2024-05-09T23:13:41.523Z,96.00
2024-05-09T23:16:31.747Z,95.70
2024-05-09T23:19:19.680Z,94.20
2024-05-09T23:22:07.153Z,94.70
2024-05-09T23:24:55.155Z,95.00
2024-05-09T23:27:43.451Z,95.90
2024-05-09T23:30:37.521Z,97.00
2024-05-09T23:33:30.776Z,97.50
2024-05-09T23:36:18.198Z,96.70
2024-05-09T23:39:06.130Z,97.00
2024-05-09T23:41:53.509Z,97.30
2024-05-09T23:44:41.595Z,96.90
2024-05-09T23:47:28.908Z,96.20
2024-05-09T23:50:26.496Z,96.70
2024-05-09T23:53:21.211Z,95.70
2024-05-09T23:56:08.997Z,95.00
2024-05-09T23:58:56.454Z,94.70
